Terminal Aerodrome Forecast
Issued by NWS Twin Cities, MN

Home | Current Version | Previous Version | Text Only | Print | Product List | Glossary Off
Versions: 1 2 3 4 5 6 7 8 9 10 11 12 13 14

000
FTUS43 KMPX 251732
TAFSTC
TAF
KSTC 251732Z 2518/2618 29022G35KT P6SM BKN025
     FM252200 30022G32KT P6SM BKN035
     FM260100 31017G24KT P6SM SKC
     FM260600 32011KT P6SM SKC
     FM261500 33011G18KT P6SM SKC=

USA.gov is the U.S. government's official web portal to all federal, state and local government web resources and services.